createdAt,value
2018-07-16T00:00:37.833Z,1013.57
2018-07-16T00:01:37.853Z,1013.55
2018-07-16T00:02:37.885Z,1013.56
2018-07-16T00:03:37.930Z,1013.55
2018-07-16T00:04:37.945Z,1013.57
2018-07-16T00:05:37.975Z,1013.55
2018-07-16T00:06:38.016Z,1013.58
2018-07-16T00:07:38.028Z,1013.50
2018-07-16T00:08:38.080Z,1013.52
2018-07-16T00:09:38.093Z,1013.49
2018-07-16T00:10:38.114Z,1013.51
2018-07-16T00:11:38.155Z,1013.54
2018-07-16T00:12:38.174Z,1013.53
2018-07-16T00:13:38.221Z,1013.49
2018-07-16T00:14:38.240Z,1013.54
2018-07-16T00:15:38.260Z,1013.53
2018-07-16T00:16:38.294Z,1013.53
2018-07-16T00:17:38.958Z,1013.51
2018-07-16T00:18:38.351Z,1013.51
2018-07-16T00:19:38.409Z,1013.52
2018-07-16T00:20:38.398Z,1013.50
2018-07-16T00:21:38.433Z,1013.51
2018-07-16T00:22:38.461Z,1013.50
2018-07-16T00:23:38.488Z,1013.52
2018-07-16T00:24:38.519Z,1013.49
2018-07-16T00:25:38.566Z,1013.47
2018-07-16T00:26:38.575Z,1013.47
2018-07-16T00:27:38.612Z,1013.46
2018-07-16T00:28:38.733Z,1013.47
2018-07-16T00:29:38.663Z,1013.50
2018-07-16T00:30:38.696Z,1013.48
2018-07-16T00:31:38.731Z,1013.46
2018-07-16T00:32:38.750Z,1013.46
2018-07-16T00:33:38.774Z,1013.45
2018-07-16T00:34:38.806Z,1013.43
2018-07-16T00:35:38.837Z,1013.40
2018-07-16T00:36:38.884Z,1013.42
2018-07-16T00:37:38.894Z,1013.41
2018-07-16T00:38:38.927Z,1013.37
2018-07-16T00:39:38.976Z,1013.37
2018-07-16T00:40:38.981Z,1013.34
2018-07-16T00:41:39.019Z,1013.31
2018-07-16T00:42:39.036Z,1013.30
2018-07-16T00:43:39.070Z,1013.33
2018-07-16T00:44:39.105Z,1013.31
2018-07-16T00:45:39.125Z,1013.30
2018-07-16T00:46:39.159Z,1013.33
2018-07-16T00:47:39.185Z,1013.35
2018-07-16T00:48:39.212Z,1013.35
2018-07-16T00:49:39.246Z,1013.36
2018-07-16T00:50:39.291Z,1013.32
2018-07-16T00:51:39.303Z,1013.34
2018-07-16T00:52:39.338Z,1013.35
2018-07-16T00:53:39.356Z,1013.37
2018-07-16T00:54:39.382Z,1013.35
2018-07-16T00:55:39.421Z,1013.39
2018-07-16T00:56:39.445Z,1013.37
2018-07-16T00:57:39.478Z,1013.37
2018-07-16T00:58:39.501Z,1013.37
2018-07-16T00:59:39.532Z,1013.36
2018-07-16T01:00:39.571Z,1013.35
2018-07-16T01:01:39.583Z,1013.35
2018-07-16T01:02:39.616Z,1013.35
2018-07-16T01:03:39.650Z,1013.32
2018-07-16T01:04:39.676Z,1013.28
2018-07-16T01:05:39.710Z,1013.28
2018-07-16T01:06:39.739Z,1013.30
2018-07-16T01:07:39.760Z,1013.30
2018-07-16T01:08:39.792Z,1013.29
2018-07-16T01:09:39.823Z,1013.32
2018-07-16T01:10:39.852Z,1013.30
2018-07-16T01:11:39.885Z,1013.30
2018-07-16T01:12:39.910Z,1013.28
2018-07-16T01:13:39.932Z,1013.31
2018-07-16T01:14:39.965Z,1013.32
2018-07-16T01:15:39.998Z,1013.28
2018-07-16T01:16:40.024Z,1013.30
2018-07-16T01:17:40.048Z,1013.27
2018-07-16T01:18:40.076Z,1013.28
2018-07-16T01:19:40.115Z,1013.26
2018-07-16T01:20:40.135Z,1013.28
2018-07-16T01:21:40.162Z,1013.26
2018-07-16T01:22:40.192Z,1013.26
2018-07-16T01:23:40.219Z,1013.30
2018-07-16T01:24:40.251Z,1013.25
2018-07-16T01:25:40.275Z,1013.26
2018-07-16T01:26:40.299Z,1013.25
2018-07-16T01:27:40.333Z,1013.26
2018-07-16T01:28:40.363Z,1013.26
2018-07-16T01:29:40.391Z,1013.24
2018-07-16T01:30:40.472Z,1013.22
2018-07-16T01:31:40.472Z,1013.22
2018-07-16T01:32:40.483Z,1013.22
2018-07-16T01:33:40.518Z,1013.22
2018-07-16T01:34:40.535Z,1013.24
2018-07-16T01:35:40.563Z,1013.22
2018-07-16T01:36:40.593Z,1013.20
2018-07-16T01:37:40.629Z,1013.22
2018-07-16T01:38:40.665Z,1013.26
2018-07-16T01:39:40.734Z,1013.25
2018-07-16T01:40:40.708Z,1013.28
2018-07-16T01:41:40.743Z,1013.32
2018-07-16T01:42:40.763Z,1013.31
2018-07-16T01:43:40.795Z,1013.33
2018-07-16T01:44:40.824Z,1013.33
2018-07-16T01:45:40.854Z,1013.31
2018-07-16T01:46:40.881Z,1013.29
2018-07-16T01:47:40.923Z,1013.30
2018-07-16T01:48:40.935Z,1013.26
2018-07-16T01:49:40.974Z,1013.31
2018-07-16T01:50:41.016Z,1013.32
2018-07-16T01:51:41.022Z,1013.32
2018-07-16T01:52:41.066Z,1013.33
2018-07-16T01:53:41.079Z,1013.33
2018-07-16T01:54:41.109Z,1013.34
2018-07-16T01:55:41.139Z,1013.35
2018-07-16T01:56:41.170Z,1013.31
2018-07-16T01:57:41.199Z,1013.37
2018-07-16T01:58:41.224Z,1013.35
2018-07-16T01:59:41.254Z,1013.32
2018-07-16T02:00:41.278Z,1013.32
2018-07-16T02:01:41.313Z,1013.32
2018-07-16T02:02:41.340Z,1013.33
2018-07-16T02:03:41.363Z,1013.34
2018-07-16T02:04:41.394Z,1013.33
2018-07-16T02:05:41.427Z,1013.33
2018-07-16T02:06:41.467Z,1013.36
2018-07-16T02:07:41.482Z,1013.33
2018-07-16T02:08:41.516Z,1013.34
2018-07-16T02:09:41.551Z,1013.33
2018-07-16T02:10:41.577Z,1013.35
2018-07-16T02:11:41.609Z,1013.33
2018-07-16T02:12:41.628Z,1013.34
2018-07-16T02:13:41.656Z,1013.32
2018-07-16T02:14:41.688Z,1013.31
2018-07-16T02:15:41.711Z,1013.31
2018-07-16T02:16:41.742Z,1013.30
2018-07-16T02:17:41.763Z,1013.28
2018-07-16T02:18:41.794Z,1013.30
2018-07-16T02:19:41.824Z,1013.31
2018-07-16T02:20:41.853Z,1013.29
2018-07-16T02:21:41.892Z,1013.27
2018-07-16T02:22:41.927Z,1013.29
2018-07-16T02:23:41.956Z,1013.27
2018-07-16T02:24:41.973Z,1013.27
2018-07-16T02:25:42.016Z,1013.25
2018-07-16T02:26:42.028Z,1013.24
2018-07-16T02:27:42.059Z,1013.24
2018-07-16T02:28:42.093Z,1013.23
2018-07-16T02:29:42.112Z,1013.23
2018-07-16T02:30:42.159Z,1013.22
2018-07-16T02:31:42.169Z,1013.23
2018-07-16T02:32:42.206Z,1013.26
2018-07-16T02:33:42.241Z,1013.22
2018-07-16T02:34:42.257Z,1013.24
2018-07-16T02:35:42.299Z,1013.22
2018-07-16T02:36:42.308Z,1013.22
2018-07-16T02:37:42.344Z,1013.21
2018-07-16T02:38:42.367Z,1013.19
2018-07-16T02:39:42.395Z,1013.18
2018-07-16T02:40:42.430Z,1013.19
2018-07-16T02:41:42.476Z,1013.22
2018-07-16T02:42:42.485Z,1013.20
2018-07-16T02:43:42.517Z,1013.23
2018-07-16T02:44:42.539Z,1013.27
2018-07-16T02:45:42.567Z,1013.28
2018-07-16T02:46:42.599Z,1013.28
2018-07-16T02:47:42.670Z,1013.27
2018-07-16T02:48:42.663Z,1013.30
2018-07-16T02:49:42.706Z,1013.30
2018-07-16T02:50:42.708Z,1013.26
2018-07-16T02:51:42.748Z,1013.28
2018-07-16T02:52:42.831Z,1013.30
2018-07-16T02:53:42.794Z,1013.33
2018-07-16T02:54:42.837Z,1013.28
2018-07-16T02:55:42.856Z,1013.29
2018-07-16T02:56:42.887Z,1013.28
2018-07-16T02:57:42.930Z,1013.29
2018-07-16T02:58:42.938Z,1013.25
2018-07-16T02:59:42.976Z,1013.27
2018-07-16T03:00:42.994Z,1013.22
2018-07-16T03:01:43.030Z,1013.27
2018-07-16T03:02:43.054Z,1013.26
2018-07-16T03:03:43.089Z,1013.24
2018-07-16T03:04:43.114Z,1013.24
2018-07-16T03:05:43.136Z,1013.23
2018-07-16T03:06:43.166Z,1013.22
2018-07-16T03:07:43.201Z,1013.24
2018-07-16T03:08:43.222Z,1013.21
2018-07-16T03:09:43.251Z,1013.23
2018-07-16T03:10:43.290Z,1013.21
2018-07-16T03:11:43.308Z,1013.27
2018-07-16T03:12:43.346Z,1013.20
2018-07-16T03:13:43.380Z,1013.25
2018-07-16T03:14:43.393Z,1013.26
2018-07-16T03:15:43.428Z,1013.29
2018-07-16T03:16:43.473Z,1013.26
2018-07-16T03:17:43.484Z,1013.28
2018-07-16T03:18:43.527Z,1013.31
2018-07-16T03:19:43.534Z,1013.29
2018-07-16T03:20:43.575Z,1013.31
2018-07-16T03:21:43.617Z,1013.30
2018-07-16T03:22:43.623Z,1013.29
2018-07-16T03:23:43.659Z,1013.29
2018-07-16T03:24:43.679Z,1013.27
2018-07-16T03:25:43.709Z,1013.29
2018-07-16T03:26:43.736Z,1013.27
2018-07-16T03:27:43.766Z,1013.29
2018-07-16T03:28:43.796Z,1013.27
2018-07-16T03:29:43.821Z,1013.27
2018-07-16T03:30:43.858Z,1013.24
2018-07-16T03:31:43.876Z,1013.23
2018-07-16T03:32:43.906Z,1013.24
2018-07-16T03:33:43.937Z,1013.21
2018-07-16T03:34:43.962Z,1013.20
2018-07-16T03:35:43.994Z,1013.22
2018-07-16T03:36:44.029Z,1013.20
2018-07-16T03:37:44.068Z,1013.17
2018-07-16T03:38:44.081Z,1013.18
2018-07-16T03:39:44.121Z,1013.22
2018-07-16T03:40:44.135Z,1013.22
2018-07-16T03:41:44.163Z,1013.22
2018-07-16T03:42:44.201Z,1013.27
2018-07-16T03:43:44.250Z,1013.26
2018-07-16T03:44:44.258Z,1013.26
2018-07-16T03:45:44.281Z,1013.28
2018-07-16T03:46:44.304Z,1013.25
2018-07-16T03:47:44.339Z,1013.26
2018-07-16T03:48:44.379Z,1013.27
2018-07-16T03:49:44.401Z,1013.24
2018-07-16T03:50:44.417Z,1013.25
2018-07-16T03:51:44.446Z,1013.26
2018-07-16T03:52:44.484Z,1013.25
2018-07-16T03:53:44.508Z,1013.26
2018-07-16T03:54:44.539Z,1013.29
2018-07-16T03:55:44.614Z,1013.30
2018-07-16T03:56:44.592Z,1013.26
2018-07-16T03:57:44.619Z,1013.21
2018-07-16T03:58:44.645Z,1013.24
2018-07-16T03:59:44.681Z,1013.25
2018-07-16T04:00:44.712Z,1013.20
2018-07-16T04:01:44.730Z,1013.20
2018-07-16T04:02:44.760Z,1013.21
2018-07-16T04:03:44.797Z,1013.20
2018-07-16T04:04:44.815Z,1013.20
2018-07-16T04:05:44.872Z,1013.27
2018-07-16T04:06:44.888Z,1013.24
2018-07-16T04:07:44.896Z,1013.24
2018-07-16T04:08:44.935Z,1013.23
2018-07-16T04:09:44.962Z,1013.23
2018-07-16T04:10:44.990Z,1013.24
2018-07-16T04:11:45.037Z,1013.23
2018-07-16T04:12:45.041Z,1013.24
2018-07-16T04:13:45.078Z,1013.23
2018-07-16T04:14:45.181Z,1013.20
2018-07-16T04:15:45.128Z,1013.20
2018-07-16T04:16:45.161Z,1013.20
2018-07-16T04:17:45.181Z,1013.18
2018-07-16T04:18:45.210Z,1013.16
2018-07-16T04:19:45.239Z,1013.15
2018-07-16T04:20:45.269Z,1013.13
2018-07-16T04:21:45.309Z,1013.16
2018-07-16T04:22:45.323Z,1013.14
2018-07-16T04:23:45.360Z,1013.15
2018-07-16T04:24:45.385Z,1013.17
2018-07-16T04:25:45.408Z,1013.18
2018-07-16T04:26:45.445Z,1013.21
2018-07-16T04:27:45.480Z,1013.19
2018-07-16T04:28:45.494Z,1013.18
2018-07-16T04:29:45.520Z,1013.22
2018-07-16T04:30:45.556Z,1013.19
2018-07-16T04:31:45.584Z,1013.19
2018-07-16T04:32:45.621Z,1013.20
2018-07-16T04:33:45.645Z,1013.21
2018-07-16T04:34:45.672Z,1013.24
2018-07-16T04:35:45.711Z,1013.19
2018-07-16T04:36:45.726Z,1013.19
2018-07-16T04:37:45.760Z,1013.17
2018-07-16T04:38:45.781Z,1013.16
2018-07-16T04:39:45.861Z,1013.12
2018-07-16T04:40:45.859Z,1013.15
2018-07-16T04:41:45.869Z,1013.11
2018-07-16T04:42:45.900Z,1013.09
2018-07-16T04:43:45.931Z,1013.11
2018-07-16T04:44:45.953Z,1013.10
2018-07-16T04:45:45.985Z,1013.08
2018-07-16T04:46:46.013Z,1013.09
2018-07-16T04:47:46.038Z,1013.08
2018-07-16T04:48:46.065Z,1013.06
2018-07-16T04:49:46.099Z,1013.07
2018-07-16T04:50:46.129Z,1013.06
2018-07-16T04:51:46.152Z,1013.05
2018-07-16T04:52:46.181Z,1013.01
2018-07-16T04:53:46.214Z,1013.05
2018-07-16T04:54:46.236Z,1013.06
2018-07-16T04:55:46.266Z,1013.05
2018-07-16T04:56:46.303Z,1013.06
2018-07-16T04:57:46.330Z,1013.04
2018-07-16T04:58:46.354Z,1013.08
2018-07-16T04:59:46.396Z,1013.05
2018-07-16T05:00:46.407Z,1013.05
2018-07-16T05:01:46.444Z,1013.05
2018-07-16T05:02:46.469Z,1013.03
2018-07-16T05:03:46.493Z,1013.04
2018-07-16T05:04:46.531Z,1013.06
2018-07-16T05:05:46.610Z,1013.05
2018-07-16T05:06:46.583Z,1013.08
2018-07-16T05:07:46.623Z,1013.07
2018-07-16T05:08:46.640Z,1013.09
2018-07-16T05:09:46.665Z,1013.08
2018-07-16T05:10:46.710Z,1013.07
2018-07-16T05:11:46.721Z,1013.08
2018-07-16T05:12:46.759Z,1013.08
2018-07-16T05:13:46.781Z,1013.05
2018-07-16T05:14:46.818Z,1013.04
2018-07-16T05:15:46.850Z,1013.06
2018-07-16T05:16:46.887Z,1013.03
2018-07-16T05:17:46.904Z,1013.00
2018-07-16T05:18:46.936Z,1013.03
2018-07-16T05:19:46.956Z,1013.06
2018-07-16T05:20:46.990Z,1013.04
2018-07-16T05:21:47.012Z,1013.06
2018-07-16T05:22:47.040Z,1013.04
2018-07-16T05:23:47.094Z,1013.00
2018-07-16T05:24:47.095Z,1012.98
2018-07-16T05:25:47.158Z,1012.96
2018-07-16T05:26:47.154Z,1012.93
2018-07-16T05:27:47.197Z,1012.93
2018-07-16T05:28:47.226Z,1012.97
2018-07-16T05:29:47.249Z,1012.99
2018-07-16T05:30:47.272Z,1012.97
2018-07-16T05:31:47.343Z,1012.98
2018-07-16T05:32:47.549Z,1012.95
2018-07-16T05:33:47.357Z,1012.94
2018-07-16T05:34:47.384Z,1012.95
2018-07-16T05:35:47.426Z,1012.97
2018-07-16T05:36:47.448Z,1012.99
2018-07-16T05:37:47.487Z,1012.97
2018-07-16T05:38:47.501Z,1012.97
2018-07-16T05:39:47.533Z,1012.94
2018-07-16T05:40:47.561Z,1012.96
2018-07-16T05:41:47.592Z,1012.97
2018-07-16T05:42:47.624Z,1012.97
2018-07-16T05:43:47.646Z,1012.92
2018-07-16T05:44:47.677Z,1012.94
2018-07-16T05:45:47.703Z,1012.92
2018-07-16T05:46:47.731Z,1012.96
2018-07-16T05:47:47.761Z,1013.03
2018-07-16T05:48:47.797Z,1013.00
2018-07-16T05:49:47.826Z,1012.98
2018-07-16T05:50:47.860Z,1012.99
2018-07-16T05:51:47.878Z,1012.95
2018-07-16T05:52:47.905Z,1012.93
2018-07-16T05:53:47.945Z,1012.91
2018-07-16T05:55:47.997Z,1012.89
2018-07-16T05:56:48.026Z,1012.86
2018-07-16T05:57:48.054Z,1012.86
2018-07-16T05:58:48.078Z,1012.84
2018-07-16T05:59:48.102Z,1012.85
2018-07-16T06:00:48.134Z,1012.85
2018-07-16T06:01:48.167Z,1012.83
2018-07-16T06:02:48.195Z,1012.88
2018-07-16T06:03:48.233Z,1012.84
2018-07-16T06:04:48.258Z,1012.86
2018-07-16T06:05:48.279Z,1012.81
2018-07-16T06:06:48.308Z,1012.82
2018-07-16T06:07:48.363Z,1012.84
2018-07-16T06:08:48.408Z,1012.84
2018-07-16T06:09:48.400Z,1012.83
2018-07-16T06:10:48.434Z,1012.87
2018-07-16T06:11:48.456Z,1012.85
2018-07-16T06:12:48.498Z,1012.86
2018-07-16T06:13:48.520Z,1012.88
2018-07-16T06:14:48.551Z,1012.84
2018-07-16T06:15:48.633Z,1012.85
2018-07-16T06:16:48.661Z,1012.81
2018-07-16T06:17:48.629Z,1012.84
2018-07-16T06:18:48.672Z,1012.86
2018-07-16T06:20:48.722Z,1012.85
2018-07-16T06:21:48.763Z,1012.83
2018-07-16T06:22:48.773Z,1012.85
2018-07-16T06:23:48.829Z,1012.82
2018-07-16T06:24:48.843Z,1012.83
2018-07-16T06:25:48.870Z,1012.82
2018-07-16T06:26:48.904Z,1012.86
2018-07-16T06:27:48.927Z,1012.82
2018-07-16T06:28:48.949Z,1012.87
2018-07-16T06:29:48.986Z,1012.85
2018-07-16T06:30:49.007Z,1012.80
2018-07-16T06:31:49.032Z,1012.83
2018-07-16T06:32:49.069Z,1012.81
2018-07-16T06:33:49.088Z,1012.83
2018-07-16T06:34:49.130Z,1012.78
2018-07-16T06:35:49.149Z,1012.83
2018-07-16T06:36:49.218Z,1012.81
2018-07-16T06:37:49.218Z,1012.82
2018-07-16T06:38:49.248Z,1012.81
2018-07-16T06:39:49.267Z,1012.85
2018-07-16T06:40:49.458Z,1012.82
2018-07-16T06:41:49.323Z,1012.85
2018-07-16T06:42:49.352Z,1012.81
2018-07-16T06:43:49.414Z,1012.80
2018-07-16T06:44:49.422Z,1012.80
2018-07-16T06:45:49.440Z,1012.80
2018-07-16T06:46:49.467Z,1012.82
2018-07-16T06:47:49.556Z,1012.76
2018-07-16T06:48:49.530Z,1012.76
2018-07-16T06:49:49.562Z,1012.79
2018-07-16T06:50:49.584Z,1012.76
2018-07-16T06:51:49.621Z,1012.75
2018-07-16T06:52:49.640Z,1012.78
2018-07-16T06:53:49.673Z,1012.77
2018-07-16T06:54:49.705Z,1012.74
2018-07-16T06:55:49.733Z,1012.72
2018-07-16T06:56:49.763Z,1012.69
2018-07-16T06:57:49.801Z,1012.72
2018-07-16T06:58:49.816Z,1012.69
2018-07-16T06:59:49.852Z,1012.66
2018-07-16T07:00:49.872Z,1012.71
2018-07-16T07:01:49.902Z,1012.71
2018-07-16T07:02:49.934Z,1012.68
2018-07-16T07:03:49.971Z,1012.73
2018-07-16T07:04:49.994Z,1012.72
2018-07-16T07:05:50.017Z,1012.66
2018-07-16T07:06:50.049Z,1012.67
2018-07-16T07:07:50.073Z,1012.68
2018-07-16T07:08:50.109Z,1012.65
2018-07-16T07:09:50.146Z,1012.65
2018-07-16T07:10:50.170Z,1012.64
2018-07-16T07:11:50.206Z,1012.66
2018-07-16T07:12:50.222Z,1012.65
2018-07-16T07:13:50.255Z,1012.67
2018-07-16T07:14:50.281Z,1012.65
2018-07-16T07:15:50.337Z,1012.66
2018-07-16T07:16:50.351Z,1012.64
2018-07-16T07:17:50.379Z,1012.63
2018-07-16T07:18:50.468Z,1012.63
2018-07-16T07:19:50.428Z,1012.63
2018-07-16T07:20:50.472Z,1012.63
2018-07-16T07:21:50.489Z,1012.62
2018-07-16T07:22:50.521Z,1012.59
2018-07-16T07:23:50.551Z,1012.63
2018-07-16T07:24:50.575Z,1012.63
2018-07-16T07:25:50.609Z,1012.63
2018-07-16T07:26:50.649Z,1012.66
2018-07-16T07:27:50.779Z,1012.61
2018-07-16T07:28:50.686Z,1012.61
2018-07-16T07:29:50.728Z,1012.61
2018-07-16T07:30:50.750Z,1012.60
2018-07-16T07:31:50.785Z,1012.60
2018-07-16T07:32:50.828Z,1012.60
2018-07-16T07:33:50.845Z,1012.59
2018-07-16T07:34:50.877Z,1012.61
2018-07-16T07:35:50.928Z,1012.59
2018-07-16T07:36:50.924Z,1012.57
2018-07-16T07:37:50.951Z,1012.57
2018-07-16T07:38:51.031Z,1012.55
2018-07-16T07:39:51.015Z,1012.59
2018-07-16T07:40:51.049Z,1012.59
2018-07-16T07:41:51.076Z,1012.58
2018-07-16T07:42:51.099Z,1012.59
2018-07-16T07:43:51.131Z,1012.60
2018-07-16T07:44:51.160Z,1012.63
2018-07-16T07:45:51.194Z,1012.63
2018-07-16T07:46:51.221Z,1012.66
2018-07-16T07:47:51.265Z,1012.66
2018-07-16T07:48:51.299Z,1012.66
2018-07-16T07:49:51.310Z,1012.64
2018-07-16T07:50:51.334Z,1012.67
2018-07-16T07:51:51.367Z,1012.62
2018-07-16T07:52:51.422Z,1012.62
2018-07-16T07:53:51.421Z,1012.64
2018-07-16T07:54:51.644Z,1012.64
2018-07-16T07:55:51.493Z,1012.63
2018-07-16T07:56:51.509Z,1012.63
2018-07-16T07:57:51.552Z,1012.64
2018-07-16T07:58:51.570Z,1012.64
2018-07-16T07:59:51.602Z,1012.63
2018-07-16T08:00:51.631Z,1012.68
2018-07-16T08:01:51.662Z,1012.66
2018-07-16T08:02:51.702Z,1012.63
2018-07-16T08:03:51.719Z,1012.69
2018-07-16T08:04:51.757Z,1012.64
2018-07-16T08:05:51.778Z,1012.68
2018-07-16T08:06:51.808Z,1012.66
2018-07-16T08:07:51.845Z,1012.64
2018-07-16T08:08:51.874Z,1012.58
2018-07-16T08:09:51.898Z,1012.63
2018-07-16T08:10:51.934Z,1012.62
2018-07-16T08:11:51.964Z,1012.62
2018-07-16T08:12:51.988Z,1012.60
2018-07-16T08:13:52.050Z,1012.63
2018-07-16T08:14:52.040Z,1012.60
2018-07-16T08:15:52.070Z,1012.59
2018-07-16T08:16:52.104Z,1012.57
2018-07-16T08:17:52.153Z,1012.57
2018-07-16T08:18:52.167Z,1012.61
2018-07-16T08:19:52.189Z,1012.60
2018-07-16T08:20:52.265Z,1012.62
2018-07-16T08:21:52.252Z,1012.62
2018-07-16T08:22:52.292Z,1012.61
2018-07-16T08:23:52.315Z,1012.60
2018-07-16T08:24:52.340Z,1012.57
2018-07-16T08:25:52.383Z,1012.55
2018-07-16T08:26:52.410Z,1012.51
2018-07-16T08:27:52.444Z,1012.47
2018-07-16T08:28:52.456Z,1012.49
2018-07-16T08:29:52.508Z,1012.50
2018-07-16T08:30:52.519Z,1012.44
2018-07-16T08:31:52.556Z,1012.46
2018-07-16T08:32:52.590Z,1012.46
2018-07-16T08:33:52.611Z,1012.42
2018-07-16T08:34:52.643Z,1012.43
2018-07-16T08:35:52.675Z,1012.49
2018-07-16T08:36:52.698Z,1012.47
2018-07-16T08:37:52.721Z,1012.47
2018-07-16T08:38:53.622Z,1012.46
2018-07-16T08:39:52.784Z,1012.42
2018-07-16T08:40:52.871Z,1012.39
2018-07-16T08:41:52.846Z,1012.43
2018-07-16T08:42:52.882Z,1012.41
2018-07-16T08:43:52.907Z,1012.41
2018-07-16T08:44:52.931Z,1012.40
2018-07-16T08:45:52.972Z,1012.39
2018-07-16T08:46:52.987Z,1012.38
2018-07-16T08:47:53.020Z,1012.42
2018-07-16T08:48:53.054Z,1012.41
2018-07-16T08:49:53.095Z,1012.39
2018-07-16T08:50:53.109Z,1012.40
2018-07-16T08:51:53.149Z,1012.37
2018-07-16T08:52:53.266Z,1012.38
2018-07-16T08:53:53.217Z,1012.36
2018-07-16T08:54:53.237Z,1012.39
2018-07-16T08:55:53.261Z,1012.38
2018-07-16T08:56:53.298Z,1012.38
2018-07-16T08:57:53.325Z,1012.41
2018-07-16T08:58:53.437Z,1012.43
2018-07-16T08:59:53.380Z,1012.41
2018-07-16T09:00:53.418Z,1012.39
2018-07-16T09:01:53.456Z,1012.40
2018-07-16T09:02:53.481Z,1012.44
2018-07-16T09:03:53.510Z,1012.41
2018-07-16T09:04:53.528Z,1012.37
2018-07-16T09:05:53.560Z,1012.37
2018-07-16T09:06:53.590Z,1012.32
2018-07-16T09:07:53.624Z,1012.33
2018-07-16T09:08:53.712Z,1012.35
2018-07-16T09:09:53.684Z,1012.33
2018-07-16T09:10:53.754Z,1012.37
2018-07-16T09:11:53.736Z,1012.39
2018-07-16T09:12:53.772Z,1012.39
2018-07-16T09:13:53.802Z,1012.42
2018-07-16T09:14:53.841Z,1012.42
2018-07-16T09:15:53.864Z,1012.40
2018-07-16T09:16:53.960Z,1012.40
2018-07-16T09:17:53.925Z,1012.43
2018-07-16T09:18:53.960Z,1012.39
2018-07-16T09:19:53.987Z,1012.39
2018-07-16T09:20:54.017Z,1012.40
2018-07-16T09:21:54.053Z,1012.44
2018-07-16T09:22:54.070Z,1012.42
2018-07-16T09:23:54.113Z,1012.40
2018-07-16T09:24:54.131Z,1012.41
2018-07-16T09:25:54.171Z,1012.42
2018-07-16T09:26:54.191Z,1012.40
2018-07-16T09:27:54.234Z,1012.40
2018-07-16T09:28:54.259Z,1012.40
2018-07-16T09:29:54.295Z,1012.34
2018-07-16T09:30:54.322Z,1012.38
2018-07-16T09:31:54.340Z,1012.37
2018-07-16T09:32:54.384Z,1012.34
2018-07-16T09:33:54.406Z,1012.36
2018-07-16T09:34:54.432Z,1012.30
2018-07-16T09:35:54.468Z,1012.29
2018-07-16T09:36:54.496Z,1012.26
2018-07-16T09:37:54.529Z,1012.28
2018-07-16T09:38:54.568Z,1012.31
2018-07-16T09:39:54.584Z,1012.27
2018-07-16T09:40:54.647Z,1012.30
2018-07-16T09:41:54.655Z,1012.29
2018-07-16T09:42:54.686Z,1012.25
2018-07-16T09:43:54.724Z,1012.25
2018-07-16T09:44:54.740Z,1012.22
2018-07-16T09:45:54.786Z,1012.27
2018-07-16T09:46:54.797Z,1012.26
2018-07-16T09:47:54.834Z,1012.25
2018-07-16T09:48:54.865Z,1012.25
2018-07-16T09:49:54.917Z,1012.24
2018-07-16T09:50:54.925Z,1012.25
2018-07-16T09:51:54.953Z,1012.23
2018-07-16T09:52:55.034Z,1012.22
2018-07-16T09:53:55.015Z,1012.21
2018-07-16T09:54:55.047Z,1012.26
2018-07-16T09:55:55.081Z,1012.20
2018-07-16T09:56:55.102Z,1012.18
2018-07-16T09:57:55.141Z,1012.18
2018-07-16T09:58:55.179Z,1012.15
2018-07-16T09:59:55.198Z,1012.15
2018-07-16T10:00:55.259Z,1012.14
2018-07-16T10:01:55.261Z,1012.13
2018-07-16T10:02:55.292Z,1012.12
2018-07-16T10:03:55.322Z,1012.09
2018-07-16T10:04:55.379Z,1012.15
2018-07-16T10:05:55.380Z,1012.11
2018-07-16T10:06:55.416Z,1012.11
2018-07-16T10:07:55.448Z,1012.14
2018-07-16T10:08:55.505Z,1012.11
2018-07-16T10:09:55.501Z,1012.10
2018-07-16T10:10:55.535Z,1012.06
2018-07-16T10:11:55.566Z,1012.02
2018-07-16T10:12:55.592Z,1012.08
2018-07-16T10:13:55.628Z,1012.04
2018-07-16T10:14:55.663Z,1012.05
2018-07-16T10:15:55.692Z,1012.08
2018-07-16T10:16:55.727Z,1012.08
2018-07-16T10:17:55.755Z,1012.10
2018-07-16T10:18:55.792Z,1012.10
2018-07-16T10:19:55.816Z,1012.06
2018-07-16T10:20:55.846Z,1012.04
2018-07-16T10:21:55.875Z,1012.07
2018-07-16T10:35:25.137Z,1012.11
2018-07-16T10:36:25.144Z,1011.98
2018-07-16T10:38:18.373Z,1012.01
2018-07-16T10:39:18.450Z,1012.06
2018-07-16T10:41:11.560Z,1012.09
2018-07-16T10:42:11.582Z,1012.05
2018-07-16T10:44:04.727Z,1012.06
2018-07-16T10:45:04.758Z,1012.04
2018-07-16T10:46:57.935Z,1012.03
2018-07-16T10:47:57.954Z,1012.00
2018-07-16T10:49:51.228Z,1012.02
2018-07-16T10:50:51.154Z,1012.00
2018-07-16T10:52:44.335Z,1012.02
2018-07-16T10:53:44.366Z,1012.01
2018-07-16T10:55:37.545Z,1011.97
2018-07-16T10:56:37.530Z,1011.96
2018-07-16T10:58:30.740Z,1011.91
2018-07-16T10:59:30.743Z,1011.93
2018-07-16T11:01:23.971Z,1011.95
2018-07-16T11:02:23.954Z,1011.94
2018-07-16T11:04:17.140Z,1011.88
2018-07-16T11:05:17.224Z,1011.89
2018-07-16T11:07:10.357Z,1011.85
2018-07-16T11:08:10.357Z,1011.86
2018-07-16T11:10:03.512Z,1011.81
2018-07-16T11:11:03.537Z,1011.85
2018-07-16T11:12:56.742Z,1011.82
2018-07-16T11:13:56.741Z,1011.79
2018-07-16T11:15:49.936Z,1011.79
2018-07-16T11:16:49.942Z,1011.73
2018-07-16T11:18:43.154Z,1011.74
2018-07-16T11:19:43.179Z,1011.67
2018-07-16T11:21:36.351Z,1011.68
2018-07-16T11:22:36.351Z,1011.66
2018-07-16T11:24:29.522Z,1011.56
2018-07-16T11:25:29.567Z,1011.54
2018-07-16T11:27:22.740Z,1011.46
2018-07-16T11:28:22.760Z,1011.48
2018-07-16T11:30:15.922Z,1011.41
2018-07-16T11:31:15.950Z,1011.45
2018-07-16T11:33:09.186Z,1011.48
2018-07-16T11:34:09.173Z,1011.46
2018-07-16T11:36:02.353Z,1011.43
2018-07-16T11:37:02.364Z,1011.43
2018-07-16T11:38:55.543Z,1011.41
2018-07-16T11:39:55.574Z,1011.45
2018-07-16T11:41:48.741Z,1011.41
2018-07-16T11:42:48.754Z,1011.40
2018-07-16T11:44:42.042Z,1011.38
2018-07-16T11:45:41.945Z,1011.38
2018-07-16T11:47:35.173Z,1011.38
2018-07-16T11:48:35.166Z,1011.33
2018-07-16T11:50:28.326Z,1011.40
2018-07-16T11:51:28.355Z,1011.39
2018-07-16T11:53:21.542Z,1011.33
2018-07-16T11:54:21.534Z,1011.36
2018-07-16T11:56:14.732Z,1011.31
2018-07-16T11:57:14.748Z,1011.29
2018-07-16T11:59:07.959Z,1011.29
2018-07-16T12:00:07.943Z,1011.26
2018-07-16T12:01:07.968Z,1011.25
2018-07-16T12:02:08.009Z,1011.21
2018-07-16T12:03:08.051Z,1011.21
2018-07-16T12:04:08.067Z,1011.20
2018-07-16T12:05:08.114Z,1011.19
2018-07-16T12:06:08.144Z,1011.19
2018-07-16T12:07:08.168Z,1011.17
2018-07-16T12:08:08.199Z,1011.18
2018-07-16T12:09:08.235Z,1011.18
2018-07-16T12:10:08.270Z,1011.17
2018-07-16T12:11:08.295Z,1011.13
2018-07-16T12:12:08.391Z,1011.13
2018-07-16T12:13:08.361Z,1011.13
2018-07-16T12:14:08.390Z,1011.09
2018-07-16T12:15:08.422Z,1011.09
2018-07-16T12:16:08.457Z,1011.06
2018-07-16T12:17:08.496Z,1011.06
2018-07-16T12:18:08.524Z,1011.08
2018-07-16T12:19:08.561Z,1011.03
2018-07-16T12:20:09.171Z,1011.01
2018-07-16T12:21:08.614Z,1011.00
2018-07-16T12:22:08.667Z,1010.94
2018-07-16T12:23:08.690Z,1010.98
2018-07-16T12:24:08.716Z,1010.94
2018-07-16T12:25:08.748Z,1010.92
2018-07-16T12:26:08.777Z,1010.90
2018-07-16T12:27:08.808Z,1010.89
2018-07-16T12:28:08.847Z,1010.95
2018-07-16T12:29:08.881Z,1010.95
2018-07-16T12:30:08.904Z,1010.89
2018-07-16T12:31:09.676Z,1010.88
2018-07-16T12:32:08.966Z,1010.85
2018-07-16T12:33:09.001Z,1010.82
2018-07-16T12:34:09.030Z,1010.81
2018-07-16T12:35:09.071Z,1010.77
2018-07-16T12:36:09.095Z,1010.76
2018-07-16T12:37:09.137Z,1010.76
2018-07-16T12:38:09.158Z,1010.73
2018-07-16T12:39:09.185Z,1010.77
2018-07-16T12:40:09.249Z,1010.75
2018-07-16T12:41:09.257Z,1010.71
2018-07-16T12:42:09.330Z,1010.71
2018-07-16T12:43:09.315Z,1010.69
2018-07-16T12:44:09.346Z,1010.67
2018-07-16T12:45:09.380Z,1010.65
2018-07-16T12:46:09.407Z,1010.64